Time;durP1;ratioP1;P1;durP2;ratioP2;P2;SDS_P1;SDS_P2;PMS_P1;PMS_P2;Temp;Humidity;BMP_temperature;BMP_pressure;BME280_temperature;BME280_humidity;BME280_pressure;Samples;Min_cycle;Max_cycle;Signal;HPM_P1;HPM_P2
2020/12/31 00:01:28;;;;;;;22.40;14.30;;;;;;;5.52;75.32;98527.97;6159917;23;20025;-84
2020/12/31 00:03:55;;;;;;;27.17;15.10;;;;;;;5.52;75.02;98527.13;6160388;23;20025;-84
2020/12/31 00:06:21;;;;;;;26.95;14.75;;;;;;;5.51;75.08;98526.28;6159962;23;20464;-84
2020/12/31 00:08:47;;;;;;;23.83;14.68;;;;;;;5.50;75.00;98526.38;6160350;23;20044;-83
2020/12/31 00:11:14;;;;;;;23.23;14.98;;;;;;;5.48;74.96;98531.69;6184172;23;20025;-88
2020/12/31 00:13:40;;;;;;;27.42;15.48;;;;;;;5.46;75.12;98526.53;6186254;23;20021;-86
2020/12/31 00:16:07;;;;;;;25.42;15.20;;;;;;;5.46;75.32;98523.94;6160430;23;20075;-87
2020/12/31 00:18:33;;;;;;;25.80;16.58;;;;;;;5.44;75.28;98517.13;6186382;23;20024;-87
2020/12/31 00:20:59;;;;;;;29.23;16.33;;;;;;;5.42;75.15;98514.59;6185885;23;20052;-87
2020/12/31 00:23:25;;;;;;;25.95;15.23;;;;;;;5.41;75.20;98517.28;6160088;23;20021;-87
2020/12/31 00:25:53;;;;;;;25.17;16.08;;;;;;;5.39;75.14;98517.38;6160306;23;20021;-88
2020/12/31 00:28:20;;;;;;;26.90;15.88;;;;;;;5.39;74.98;98516.53;6186181;23;20021;-87
2020/12/31 00:30:47;;;;;;;22.63;15.07;;;;;;;5.38;75.27;98518.28;6186098;23;20325;-87
2020/12/31 00:33:15;;;;;;;28.42;16.17;;;;;;;5.36;75.20;98517.56;6186010;23;20032;-87
2020/12/31 00:35:42;;;;;;;24.60;15.70;;;;;;;5.34;74.97;98517.63;6186098;23;20044;-87
2020/12/31 00:38:09;;;;;;;25.80;15.95;;;;;;;5.34;75.44;98512.41;6160030;23;20096;-86
2020/12/31 00:40:35;;;;;;;25.52;16.20;;;;;;;5.32;75.18;98510.81;6159932;23;20029;-88
2020/12/31 00:43:01;;;;;;;27.15;16.92;;;;;;;5.30;75.28;98513.50;6159774;23;20025;-87
2020/12/31 00:45:27;;;;;;;25.38;15.35;;;;;;;5.30;75.65;98512.66;6185782;23;20021;-88
2020/12/31 00:47:54;;;;;;;25.83;16.85;;;;;;;5.28;75.50;98512.78;6160087;23;20048;-87
2020/12/31 00:50:22;;;;;;;26.60;15.88;;;;;;;5.28;75.95;98510.16;6159817;23;20028;-87
2020/12/31 00:52:51;;;;;;;33.50;17.30;;;;;;;5.29;75.50;98510.97;6185845;23;20055;-87
2020/12/31 00:55:17;;;;;;;27.58;16.88;;;;;;;5.30;76.21;98499.63;6185241;23;20017;-87
2020/12/31 00:57:43;;;;;;;29.45;17.30;;;;;;;5.32;75.83;98503.00;6159942;23;20325;-87
2020/12/31 01:00:11;;;;;;;24.75;15.98;;;;;;;5.32;75.81;98498.63;6159992;23;20029;-87
2020/12/31 01:02:37;;;;;;;27.73;17.15;;;;;;;5.33;75.86;98494.22;6159500;23;20475;-87
2020/12/31 01:05:11;;;;;;;28.27;18.05;;;;;;;5.32;75.03;98506.47;6159993;23;20025;-87
2020/12/31 01:07:37;;;;;;;26.58;16.98;;;;;;;5.35;75.54;98495.00;6186023;23;20033;-87
2020/12/31 01:10:08;;;;;;;26.67;16.83;;;;;;;5.36;75.62;98499.28;6159912;23;20096;-86
2020/12/31 01:12:35;;;;;;;27.77;17.17;;;;;;;5.37;75.61;98503.56;6185391;23;20021;-88
2020/12/31 01:15:02;;;;;;;29.92;17.90;;;;;;;5.38;75.73;98504.44;6159678;23;20021;-88
2020/12/31 01:17:28;;;;;;;25.65;16.60;;;;;;;5.37;75.64;98497.50;6185897;23;20029;-87
2020/12/31 01:19:55;;;;;;;28.70;16.92;;;;;;;5.38;75.76;98501.81;6159488;23;20021;-87
2020/12/31 01:22:21;;;;;;;30.13;17.27;;;;;;;5.34;75.38;98494.16;6186314;23;20032;-88
2020/12/31 01:24:47;;;;;;;27.45;17.35;;;;;;;5.33;75.21;98491.63;6159826;23;20017;-88
2020/12/31 01:27:14;;;;;;;25.52;16.80;;;;;;;5.34;75.45;98498.50;6159854;23;20355;-88
2020/12/31 01:29:41;;;;;;;28.65;16.67;;;;;;;5.33;75.52;98494.22;6159733;23;20028;-87
2020/12/31 01:32:07;;;;;;;26.77;14.38;;;;;;;5.33;75.65;98500.31;6159445;23;20456;-87
2020/12/31 01:34:35;;;;;;;26.65;15.77;;;;;;;5.34;75.84;98507.19;6185798;23;20021;-87
2020/12/31 01:37:01;;;;;;;30.23;16.40;;;;;;;5.35;75.89;98502.84;6185541;23;20025;-88
2020/12/31 01:39:27;;;;;;;24.95;16.20;;;;;;;5.34;75.70;98509.81;6159818;23;20021;-88
2020/12/31 01:41:54;;;;;;;25.90;15.82;;;;;;;5.35;75.73;98502.84;6159268;23;20024;-87
2020/12/31 01:44:20;;;;;;;26.35;15.07;;;;;;;5.35;75.80;98498.44;6159874;23;20017;-87
2020/12/31 01:46:48;;;;;;;23.60;15.30;;;;;;;5.37;75.63;98502.72;6159432;23;20025;-88
2020/12/31 01:49:18;;;;;;;23.95;14.60;;;;;;;5.36;75.57;98499.28;6159673;23;20345;-88
2020/12/31 01:51:46;;;;;;;20.85;14.23;;;;;;;5.37;75.78;98497.50;6159639;23;20027;-88
2020/12/31 01:54:20;;;;;;;26.45;15.30;;;;;;;5.36;75.25;98509.72;6185399;23;20021;-88
2020/12/31 01:56:47;;;;;;;22.67;13.43;;;;;;;5.37;75.74;98498.34;6185718;23;20021;-87
2020/12/31 01:59:15;;;;;;;21.67;12.77;;;;;;;5.39;75.96;98503.50;6160046;23;20029;-88
2020/12/31 02:01:41;;;;;;;20.95;14.57;;;;;;;5.39;75.96;98498.28;6159274;23;20453;-88
2020/12/31 02:04:08;;;;;;;27.02;15.40;;;;;;;5.39;75.66;98495.66;6159785;23;20018;-88
2020/12/31 02:06:34;;;;;;;21.38;14.02;;;;;;;5.39;75.89;98495.66;6160838;23;20021;-88
2020/12/31 02:09:00;;;;;;;21.40;13.68;;;;;;;5.39;75.96;98500.88;6161746;23;20021;-87
2020/12/31 02:11:26;;;;;;;21.77;14.23;;;;;;;5.39;76.13;98495.66;6161109;23;20032;-87
2020/12/31 02:13:54;;;;;;;24.65;14.77;;;;;;;5.40;75.77;98495.59;6187229;23;20025;-88
2020/12/31 02:16:23;;;;;;;23.42;14.55;;;;;;;5.39;75.87;98499.13;6187476;23;20021;-88
2020/12/31 02:18:55;;;;;;;20.75;13.98;;;;;;;5.38;75.25;98494.00;6187044;23;20032;-88
2020/12/31 02:21:27;;;;;;;20.88;14.15;;;;;;;5.39;75.14;98495.66;6187322;23;20024;-88
2020/12/31 02:23:54;;;;;;;20.60;14.55;;;;;;;5.40;76.19;98494.72;6161422;23;20021;-88
2020/12/31 02:26:28;;;;;;;22.90;14.23;;;;;;;5.39;75.64;98490.44;6186918;23;20025;-88
2020/12/31 02:28:56;;;;;;;20.48;14.07;;;;;;;5.39;75.96;98495.66;6187398;23;20021;-87
2020/12/31 02:31:23;;;;;;;24.02;15.50;;;;;;;5.38;75.83;98497.41;6187263;23;20021;-89
2020/12/31 02:33:51;;;;;;;21.90;15.23;;;;;;;5.38;75.58;98496.59;6187129;23;20029;-88
2020/12/31 02:36:20;;;;;;;23.00;14.52;;;;;;;5.38;75.93;98501.81;6186993;23;20032;-89
2020/12/31 02:38:46;;;;;;;23.20;14.90;;;;;;;5.38;76.01;98500.03;6187462;23;20021;-87
2020/12/31 02:41:12;;;;;;;21.50;14.30;;;;;;;5.38;76.03;98497.41;6160611;23;20460;-87
2020/12/31 02:43:39;;;;;;;21.77;14.55;;;;;;;5.38;75.84;98499.22;6161018;23;20025;-88
2020/12/31 02:46:07;;;;;;;22.80;14.27;;;;;;;5.40;76.05;98494.72;6187202;23;20025;-87
2020/12/31 02:48:33;;;;;;;21.55;15.20;;;;;;;5.41;75.99;98491.19;6187225;23;20085;-88
2020/12/31 02:50:59;;;;;;;23.98;14.48;;;;;;;5.42;76.28;98493.72;6187032;23;20043;-88
2020/12/31 02:53:26;;;;;;;25.25;14.55;;;;;;;5.43;76.11;98494.56;6160992;23;20353;-88
2020/12/31 02:55:52;;;;;;;24.40;14.23;;;;;;;5.43;76.21;98491.97;6160767;23;20024;-87
2020/12/31 02:58:18;;;;;;;19.88;14.00;;;;;;;5.43;76.06;98484.13;6187207;23;20025;-88
2020/12/31 03:00:45;;;;;;;23.13;14.45;;;;;;;5.42;76.02;98487.66;6187663;23;20020;-87
2020/12/31 03:03:11;;;;;;;19.88;14.38;;;;;;;5.41;75.73;98486.81;6187080;23;20031;-88
2020/12/31 03:05:37;;;;;;;23.38;13.85;;;;;;;5.41;75.85;98470.31;6160970;23;20020;-87
2020/12/31 03:08:04;;;;;;;22.13;14.35;;;;;;;5.41;76.02;98478.13;6186577;23;20530;-88
2020/12/31 03:10:30;;;;;;;21.27;12.82;;;;;;;5.40;76.03;98473.84;6186556;23;20025;-88
2020/12/31 03:12:57;;;;;;;17.65;12.88;;;;;;;5.39;76.16;98475.63;6160734;23;20025;-88
2020/12/31 03:15:24;;;;;;;19.63;13.15;;;;;;;5.39;75.97;98470.41;6187837;23;20024;-88
2020/12/31 03:17:50;;;;;;;21.10;13.07;;;;;;;5.39;75.76;98475.63;6186150;23;20029;-88
2020/12/31 03:20:17;;;;;;;17.98;12.93;;;;;;;5.38;76.16;98473.94;6160711;23;20032;-88
2020/12/31 03:22:43;;;;;;;18.58;11.98;;;;;;;5.38;76.06;98465.28;6160265;23;20025;-88
2020/12/31 03:25:09;;;;;;;16.70;11.48;;;;;;;5.38;76.38;98463.50;6160555;23;20021;-87
2020/12/31 03:27:35;;;;;;;19.60;12.30;;;;;;;5.38;76.11;98463.50;6161261;23;20017;-88
2020/12/31 03:30:04;;;;;;;19.30;11.93;;;;;;;5.38;75.90;98468.72;6160658;23;20044;-87
2020/12/31 03:32:31;;;;;;;20.17;13.00;;;;;;;5.39;75.78;98472.19;6160040;23;20028;-88
2020/12/31 03:34:57;;;;;;;20.25;13.60;;;;;;;5.38;75.87;98470.50;6186279;23;20017;-88
2020/12/31 03:37:25;;;;;;;18.40;12.68;;;;;;;5.37;75.82;98472.25;6186751;23;20021;-88
2020/12/31 03:39:52;;;;;;;24.45;12.65;;;;;;;5.35;75.54;98474.94;6160081;23;20017;-88
2020/12/31 03:42:18;;;;;;;16.80;11.13;;;;;;;5.35;76.08;98467.13;6160308;23;20036;-87
2020/12/31 03:44:44;;;;;;;19.48;11.95;;;;;;;5.35;76.15;98464.50;6160131;23;20021;-88
2020/12/31 03:47:10;;;;;;;18.00;12.88;;;;;;;5.34;76.10;98462.84;6186429;23;20021;-88
2020/12/31 03:49:36;;;;;;;18.92;12.27;;;;;;;5.34;75.94;98465.44;6160438;23;20028;-88
2020/12/31 03:52:03;;;;;;;16.85;11.48;;;;;;;5.34;76.00;98465.44;6158589;23;20104;-89
2020/12/31 03:54:29;;;;;;;17.05;12.05;;;;;;;5.35;76.07;98461.09;6185137;23;20024;-88
2020/12/31 03:56:55;;;;;;;17.98;12.52;;;;;;;5.33;75.68;98457.69;6186211;23;20025;-89
2020/12/31 03:59:21;;;;;;;17.30;12.85;;;;;;;5.31;75.83;98457.78;6159992;23;20468;-89
2020/12/31 04:01:47;;;;;;;17.63;12.73;;;;;;;5.30;76.00;98456.09;6160597;23;20028;-88
2020/12/31 04:04:14;;;;;;;18.02;13.32;;;;;;;5.30;75.83;98455.25;6159898;23;20479;-88
2020/12/31 04:06:40;;;;;;;19.20;13.15;;;;;;;5.30;75.92;98452.66;6160271;23;20025;-88
2020/12/31 04:09:06;;;;;;;18.48;13.35;;;;;;;5.28;76.01;98450.16;6160394;23;20024;-88
2020/12/31 04:11:32;;;;;;;18.23;13.18;;;;;;;5.27;75.75;98453.66;6160108;23;20391;-88
2020/12/31 04:13:58;;;;;;;18.98;14.05;;;;;;;5.25;76.09;98455.53;6159998;23;20122;-88
2020/12/31 04:16:25;;;;;;;20.23;14.02;;;;;;;5.24;76.12;98445.19;6186209;23;20021;-89
2020/12/31 04:18:51;;;;;;;19.48;14.60;;;;;;;5.22;76.00;98442.66;6160520;23;20044;-88
2020/12/31 04:21:21;;;;;;;18.45;13.35;;;;;;;5.21;75.90;98446.19;6186178;23;20021;-88
2020/12/31 04:23:48;;;;;;;21.92;14.85;;;;;;;5.20;76.00;98444.53;6159690;23;20025;-88
2020/12/31 04:26:15;;;;;;;23.02;16.13;;;;;;;5.20;76.16;98441.91;6160241;23;20028;-89
2020/12/31 04:28:41;;;;;;;21.67;16.05;;;;;;;5.18;76.01;98442.00;6185868;23;20032;-88
2020/12/31 04:31:07;;;;;;;21.73;15.15;;;;;;;5.17;76.28;98442.06;6186091;23;20084;-87
2020/12/31 04:33:33;;;;;;;21.08;15.07;;;;;;;5.17;76.09;98439.47;6159876;23;20108;-87
2020/12/31 04:35:59;;;;;;;25.00;16.13;;;;;;;5.14;76.32;98434.41;6186201;23;20025;-88
2020/12/31 04:38:26;;;;;;;23.98;16.77;;;;;;;5.13;75.91;98443.16;6159903;23;20021;-89
2020/12/31 04:40:52;;;;;;;23.02;15.13;;;;;;;5.12;76.28;98434.50;6185682;23;20032;-88
2020/12/31 04:43:20;;;;;;;21.60;16.05;;;;;;;5.09;76.18;98438.13;6159781;23;20041;-88
2020/12/31 04:45:46;;;;;;;20.77;14.65;;;;;;;5.11;76.26;98439.78;6186159;23;20017;-88
2020/12/31 04:48:27;;;;;;;22.48;15.65;;;;;;;5.07;75.79;98445.19;6186157;23;20029;-88
2020/12/31 04:50:58;;;;;;;20.15;15.00;;;;;;;5.08;76.02;98439.06;6160046;23;20021;-88
2020/12/31 04:53:25;;;;;;;23.10;15.60;;;;;;;5.09;76.06;98445.13;6159583;23;20483;-88
2020/12/31 04:55:52;;;;;;;19.60;14.57;;;;;;;5.08;76.38;98436.44;6159344;23;20013;-89
2020/12/31 04:58:18;;;;;;;24.25;14.65;;;;;;;5.08;76.31;98440.81;6159953;23;20032;-89
2020/12/31 05:00:45;;;;;;;19.25;13.57;;;;;;;5.07;76.41;98442.59;6159486;23;20025;-88
2020/12/31 05:03:12;;;;;;;20.38;14.50;;;;;;;5.07;76.34;98434.75;6159931;23;20021;-88
2020/12/31 05:05:39;;;;;;;27.08;15.48;;;;;;;5.05;76.27;98436.59;6159528;23;20036;-89
2020/12/31 05:08:06;;;;;;;21.88;14.15;;;;;;;5.04;76.27;98437.53;6186013;23;20032;-88
2020/12/31 05:10:32;;;;;;;20.30;15.00;;;;;;;5.04;76.05;98434.06;6159360;23;20040;-89
2020/12/31 05:13:06;;;;;;;21.10;14.10;;;;;;;5.02;76.28;98436.78;6159557;23;20032;-89
2020/12/31 05:15:40;;;;;;;21.25;14.55;;;;;;;5.00;75.94;98432.56;6159755;23;20465;-88
2020/12/31 05:18:18;;;;;;;22.05;15.50;;;;;;;4.98;75.65;98439.66;6185985;23;20021;-89
2020/12/31 05:20:47;;;;;;;19.58;13.95;;;;;;;5.00;76.20;98435.16;6159672;23;20025;-89
2020/12/31 05:23:14;;;;;;;20.55;15.00;;;;;;;4.98;76.13;98437.88;6159080;23;20028;-88
2020/12/31 05:25:41;;;;;;;22.05;15.00;;;;;;;4.98;76.31;98439.66;6160399;23;20013;-88
2020/12/31 05:28:25;;;;;;;20.20;14.00;;;;;;;4.93;76.04;98452.91;6159974;23;20025;-88
2020/12/31 05:30:57;;;;;;;25.17;14.57;;;;;;;4.96;76.36;98447.53;6159529;23;20017;-89
2020/12/31 05:33:33;;;;;;;23.45;14.95;;;;;;;4.94;76.25;98447.63;6159664;23;20461;-89
2020/12/31 05:36:19;;;;;;;19.15;13.18;;;;;;;4.93;76.23;98445.97;6159664;23;20341;-90
2020/12/31 05:39:00;;;;;;;18.40;13.32;;;;;;;4.95;76.38;98449.34;6185967;23;20025;-89
2020/12/31 05:41:34;;;;;;;23.40;14.98;;;;;;;4.93;75.91;98442.50;6161059;23;20028;-89
2020/12/31 05:44:07;;;;;;;22.08;13.60;;;;;;;4.95;76.41;98440.66;6161497;23;20025;-89
2020/12/31 05:46:38;;;;;;;17.48;13.30;;;;;;;4.93;76.32;98445.09;6161421;23;20497;-88
2020/12/31 05:49:09;;;;;;;19.70;14.23;;;;;;;4.93;76.08;98447.72;6161372;23;20467;-89
2020/12/31 05:51:36;;;;;;;21.90;13.77;;;;;;;4.94;76.41;98454.63;6161883;23;20116;-89
2020/12/31 05:54:11;;;;;;;20.95;13.23;;;;;;;4.91;76.29;98452.19;6161432;23;20103;-89
2020/12/31 05:56:42;;;;;;;20.42;14.63;;;;;;;4.91;76.29;98457.41;6187611;23;20017;-89
2020/12/31 05:59:23;;;;;;;20.95;15.45;;;;;;;4.89;76.12;98459.22;6187302;23;20029;-89
2020/12/31 06:02:03;;;;;;;20.63;14.32;;;;;;;4.87;75.92;98455.88;6161535;23;20021;-89
2020/12/31 06:04:29;;;;;;;20.77;14.00;;;;;;;4.90;76.54;98458.31;6161710;23;20029;-89
2020/12/31 06:07:00;;;;;;;21.33;14.35;;;;;;;4.89;76.01;98461.84;6161526;23;20027;-89
2020/12/31 06:09:31;;;;;;;18.77;13.95;;;;;;;4.88;76.25;98467.97;6161498;23;20025;-89
2020/12/31 06:12:07;;;;;;;19.38;13.55;;;;;;;4.87;76.28;98463.69;6159588;23;20013;-84
2020/12/31 06:14:35;;;;;;;18.38;13.15;;;;;;;4.89;76.28;98461.84;6187421;23;20021;-86
2020/12/31 06:17:04;;;;;;;19.85;14.32;;;;;;;4.85;76.23;98461.19;6161474;23;20356;-86
2020/12/31 06:19:38;;;;;;;20.83;13.70;;;;;;;4.83;75.47;98463.03;6187105;23;20464;-85
2020/12/31 06:22:10;;;;;;;18.20;12.77;;;;;;;4.82;76.00;98462.19;6155797;23;20096;-85
2020/12/31 06:24:38;;;;;;;20.80;13.50;;;;;;;4.82;76.16;98461.34;6132006;23;20018;-84
2020/12/31 06:27:13;;;;;;;16.48;12.75;;;;;;;4.79;75.77;98466.72;6131952;23;20060;-84
2020/12/31 06:29:50;;;;;;;18.15;12.82;;;;;;;4.75;75.42;98466.03;6131773;23;20022;-84
2020/12/31 06:32:30;;;;;;;16.98;11.82;;;;;;;4.73;75.63;98465.28;6131410;23;20022;-84
2020/12/31 06:35:09;;;;;;;16.90;12.07;;;;;;;4.72;75.79;98467.97;6157586;23;20048;-84
2020/12/31 06:37:36;;;;;;;17.15;12.70;;;;;;;4.72;75.92;98466.22;6131611;23;20021;-84
2020/12/31 06:40:26;;;;;;;19.58;13.25;;;;;;;4.67;75.66;98471.66;6131991;23;20095;-84
2020/12/31 06:43:05;;;;;;;18.73;12.65;;;;;;;4.65;75.57;98464.84;6157318;23;20021;-84
2020/12/31 06:45:33;;;;;;;18.02;12.20;;;;;;;4.67;76.31;98469.06;6131690;23;20028;-84
2020/12/31 06:47:59;;;;;;;16.48;12.32;;;;;;;4.66;76.27;98466.53;6131652;23;20356;-83
2020/12/31 06:51:06;;;;;;;17.10;12.07;;;;;;;4.63;76.05;98469.34;6132575;23;20058;-84
2020/12/31 06:53:46;;;;;;;15.80;11.35;;;;;;;4.63;75.95;98474.53;6014362;23;20027;-84
2020/12/31 06:56:36;;;;;;;16.48;11.05;;;;;;;4.66;76.22;98471.75;6150491;23;20060;-85
2020/12/31 06:59:22;;;;;;;16.15;11.02;;;;;;;4.62;76.07;98478.03;6157051;23;20105;-84
2020/12/31 07:01:48;;;;;;;14.85;10.77;;;;;;;4.65;76.22;98476.13;6132108;23;20322;-84
2020/12/31 07:04:26;;;;;;;14.95;10.52;;;;;;;4.63;76.08;98479.75;6131206;23;20352;-84
2020/12/31 07:06:52;;;;;;;14.20;9.32;;;;;;;4.66;76.50;98476.97;6157207;23;20036;-84
2020/12/31 07:09:31;;;;;;;16.17;10.27;;;;;;;4.63;76.30;98480.56;6131536;23;20456;-83
2020/12/31 07:12:05;;;;;;;12.35;8.68;;;;;;;4.65;76.26;98478.75;6157277;23;20044;-84
2020/12/31 07:14:33;;;;;;;11.45;8.23;;;;;;;4.67;76.22;98489.06;6131806;23;20021;-84
2020/12/31 07:17:11;;;;;;;11.93;8.80;;;;;;;4.64;75.91;98484.03;6131353;23;20025;-84
2020/12/31 07:19:39;;;;;;;11.77;7.97;;;;;;;4.65;76.22;98483.09;6157786;23;20026;-84
2020/12/31 07:22:22;;;;;;;10.13;7.32;;;;;;;4.63;75.95;98482.34;6130747;23;20088;-84
2020/12/31 07:24:52;;;;;;;10.50;7.35;;;;;;;4.65;76.03;98489.19;6157146;23;20018;-84
2020/12/31 07:27:23;;;;;;;7.00;5.63;;;;;;;4.65;76.36;98483.09;6130795;23;20464;-83
2020/12/31 07:30:07;;;;;;;9.85;7.00;;;;;;;4.63;75.83;98488.41;6131156;23;20029;-84
2020/12/31 07:32:54;;;;;;;9.82;6.88;;;;;;;4.65;75.81;98497.00;6156822;23;20028;-84
2020/12/31 07:35:31;;;;;;;9.98;7.05;;;;;;;4.65;75.86;98488.31;6156977;23;20049;-84
2020/12/31 07:38:09;;;;;;;9.80;7.13;;;;;;;4.63;75.41;98492.78;6131059;23;20026;-84
2020/12/31 07:40:41;;;;;;;9.75;7.18;;;;;;;4.61;75.51;98490.25;6156611;23;20452;-84
2020/12/31 07:43:16;;;;;;;10.20;7.45;;;;;;;4.59;75.75;98496.47;6156795;23;20021;-84
2020/12/31 07:45:52;;;;;;;12.70;8.23;;;;;;;4.53;75.52;98498.47;6157065;23;20021;-84
2020/12/31 07:48:19;;;;;;;10.13;8.23;;;;;;;4.54;76.04;98496.69;6131352;23;20021;-84
2020/12/31 07:50:51;;;;;;;15.52;9.32;;;;;;;4.51;76.25;98500.31;6156821;23;20025;-84
2020/12/31 07:53:17;;;;;;;11.45;8.25;;;;;;;4.49;76.42;98502.16;6130547;23;20032;-84
2020/12/31 07:55:48;;;;;;;10.43;7.95;;;;;;;4.48;76.19;98494.44;6130877;23;20021;-83
2020/12/31 07:58:23;;;;;;;12.20;8.98;;;;;;;4.47;76.43;98504.00;6156571;23;20029;-84
2020/12/31 08:01:00;;;;;;;12.40;9.30;;;;;;;4.48;76.05;98499.66;6156479;23;20035;-84
2020/12/31 08:03:27;;;;;;;15.45;10.02;;;;;;;4.50;76.54;98505.59;6155994;23;20032;-84
2020/12/31 08:05:57;;;;;;;14.63;10.43;;;;;;;4.50;76.64;98500.41;6156837;23;20022;-84
2020/12/31 08:08:23;;;;;;;15.52;10.82;;;;;;;4.50;76.62;98509.06;6155265;23;20021;-84
2020/12/31 08:10:49;;;;;;;17.95;11.32;;;;;;;4.50;76.76;98497.78;6156586;23;20030;-84
2020/12/31 08:13:17;;;;;;;17.58;11.18;;;;;;;4.50;76.59;98503.84;6130239;23;20032;-84
2020/12/31 08:15:50;;;;;;;17.60;11.00;;;;;;;4.48;76.33;98499.66;6156255;23;20058;-84
2020/12/31 08:18:16;;;;;;;18.02;11.82;;;;;;;4.49;76.63;98499.53;6156584;23;20022;-83
2020/12/31 08:20:45;;;;;;;16.75;10.85;;;;;;;4.49;76.59;98496.09;6156157;23;20033;-84
2020/12/31 08:23:18;;;;;;;16.05;11.52;;;;;;;4.48;76.38;98497.88;6156149;23;20026;-83
2020/12/31 08:25:45;;;;;;;;;;;;;;;4.51;76.01;98495.09;6157136;23;20344;-83
2020/12/31 08:28:17;;;;;;;16.00;11.38;;;;;;;4.54;76.26;98500.16;6155266;23;19924;-83
2020/12/31 08:30:43;;;;;;;19.15;12.10;;;;;;;4.54;76.46;98497.56;6156666;23;20344;-84
2020/12/31 08:33:11;;;;;;;15.55;11.63;;;;;;;4.54;76.45;98504.53;6156371;23;20022;-84
2020/12/31 08:35:38;;;;;;;17.42;11.90;;;;;;;4.54;76.86;98502.78;6156102;23;20018;-84
2020/12/31 08:38:11;;;;;;;15.95;11.48;;;;;;;4.54;76.95;98502.78;6156250;23;20032;-84
2020/12/31 08:40:46;;;;;;;18.92;12.13;;;;;;;4.56;76.66;98498.31;6130516;23;20021;-84
2020/12/31 08:43:22;;;;;;;19.33;12.55;;;;;;;4.60;76.86;98504.19;6155787;23;20029;-84
2020/12/31 08:45:56;;;;;;;17.73;12.40;;;;;;;4.64;76.87;98507.50;6156054;23;20018;-84
2020/12/31 08:48:27;;;;;;;20.02;12.60;;;;;;;4.68;76.88;98503.81;6156458;23;20028;-84
2020/12/31 08:51:13;;;;;;;17.55;12.25;;;;;;;4.68;76.33;98501.19;6130717;23;20022;-84
2020/12/31 08:54:00;;;;;;;16.70;11.55;;;;;;;4.73;76.54;98498.31;6155888;23;20056;-85
2020/12/31 08:56:28;;;;;;;18.13;12.20;;;;;;;4.74;76.35;98503.47;6156500;23;20076;-84
2020/12/31 08:59:09;;;;;;;17.38;12.23;;;;;;;4.73;76.13;98491.38;6130834;23;20021;-85
2020/12/31 09:01:36;;;;;;;18.27;12.50;;;;;;;4.77;76.84;98498.09;6129987;23;20499;-85
2020/12/31 09:04:17;;;;;;;18.02;11.55;;;;;;;4.75;76.69;98497.31;6130471;23;20026;-85
2020/12/31 09:06:48;;;;;;;19.30;12.65;;;;;;;4.79;76.74;98498.84;6155960;23;20025;-85
2020/12/31 09:09:28;;;;;;;18.75;12.68;;;;;;;4.77;76.43;98497.25;6155092;23;20028;-84
2020/12/31 09:12:01;;;;;;;17.70;12.13;;;;;;;4.81;76.54;98502.22;6154671;23;20125;-85
2020/12/31 09:14:28;;;;;;;16.73;11.75;;;;;;;4.81;76.44;98501.38;6130493;23;20022;-84
2020/12/31 09:16:55;;;;;;;15.52;11.82;;;;;;;4.80;76.49;98505.75;6132041;23;20033;-85
2020/12/31 09:19:21;;;;;;;16.17;12.18;;;;;;;4.77;76.40;98503.31;6158367;23;20036;-84
2020/12/31 09:21:47;;;;;;;15.88;11.30;;;;;;;4.78;76.48;98498.91;6132425;23;20022;-84
2020/12/31 09:24:19;;;;;;;15.00;11.60;;;;;;;4.74;76.19;98503.47;6132214;23;20419;-84
2020/12/31 09:26:59;;;;;;;17.52;11.77;;;;;;;4.72;75.75;98505.31;6132030;23;20030;-84
2020/12/31 09:29:29;;;;;;;;;;;;;;;4.74;75.73;98495.66;6133755;23;20044;-84
2020/12/31 09:31:55;;;;;;;14.93;10.73;;;;;;;4.77;76.35;98510.28;6158000;23;19916;-86
2020/12/31 09:34:22;;;;;;;17.05;12.27;;;;;;;4.71;76.00;98501.00;6156704;23;20031;-85
2020/12/31 09:36:49;;;;;;;15.70;10.85;;;;;;;4.70;76.53;98501.94;6158146;23;20033;-84
2020/12/31 09:39:16;;;;;;;15.00;10.68;;;;;;;4.68;76.79;98502.03;6132168;23;20051;-85
2020/12/31 09:41:42;;;;;;;14.38;10.57;;;;;;;4.69;76.79;98502.88;6158248;23;20033;-85
2020/12/31 09:44:08;;;;;;;15.63;10.88;;;;;;;4.68;76.54;98493.38;6132955;23;20472;-84
2020/12/31 09:46:34;;;;;;;15.43;11.15;;;;;;;4.68;76.76;98502.03;6132569;23;20021;-84
2020/12/31 09:49:00;;;;;;;14.40;9.77;;;;;;;4.68;76.50;98498.59;6156837;23;20052;-85
2020/12/31 09:51:26;;;;;;;13.10;9.95;;;;;;;4.70;76.81;98504.56;6158070;23;20022;-84
2020/12/31 09:53:53;;;;;;;13.95;10.07;;;;;;;4.70;77.11;98494.13;6131658;23;20026;-84
2020/12/31 09:56:19;;;;;;;12.38;9.18;;;;;;;4.71;76.79;98502.78;6132172;23;20029;-84
2020/12/31 09:58:46;;;;;;;11.75;9.18;;;;;;;4.72;76.83;98496.66;6158013;23;20025;-84
2020/12/31 10:01:12;;;;;;;11.43;9.05;;;;;;;4.71;76.61;98503.63;6158274;23;20056;-84
2020/12/31 10:03:38;;;;;;;11.68;9.43;;;;;;;4.69;76.48;98501.13;6131792;23;20026;-85
2020/12/31 10:06:06;;;;;;;15.88;9.77;;;;;;;4.69;76.78;98510.69;6157545;23;20460;-85
2020/12/31 10:08:32;;;;;;;13.70;9.93;;;;;;;4.71;76.90;98503.63;6157986;23;20033;-84
2020/12/31 10:10:58;;;;;;;12.20;8.98;;;;;;;4.69;76.88;98495.06;6157695;23;20021;-84
2020/12/31 10:13:24;;;;;;;13.02;9.07;;;;;;;4.70;76.85;98499.34;6157897;23;20028;-84
2020/12/31 10:15:50;;;;;;;12.65;9.30;;;;;;;4.71;76.86;98501.00;6132171;23;20021;-84
2020/12/31 10:18:16;;;;;;;12.80;9.65;;;;;;;4.72;77.11;98494.91;6157858;23;20076;-84
2020/12/31 10:20:43;;;;;;;11.90;8.40;;;;;;;4.74;77.01;98497.44;6157772;23;20044;-84
2020/12/31 10:23:09;;;;;;;12.05;8.57;;;;;;;4.75;77.07;98496.50;6157347;23;20076;-84
2020/12/31 10:25:35;;;;;;;12.57;9.10;;;;;;;4.76;76.92;98493.81;6131929;23;20018;-84
2020/12/31 10:28:01;;;;;;;10.77;8.32;;;;;;;4.79;77.24;98487.59;6131945;23;20028;-84
2020/12/31 10:30:27;;;;;;;13.55;9.05;;;;;;;4.81;77.08;98485.72;6157856;23;20028;-85
2020/12/31 10:32:53;;;;;;;10.93;8.38;;;;;;;4.82;76.94;98487.41;6156998;23;20025;-85
2020/12/31 10:35:20;;;;;;;11.90;8.75;;;;;;;4.82;76.86;98488.25;6131826;23;20028;-84
2020/12/31 10:37:46;;;;;;;12.32;9.10;;;;;;;4.84;77.02;98485.56;6131592;23;20021;-84
2020/12/31 10:40:12;;;;;;;12.32;8.93;;;;;;;4.86;76.90;98483.72;6157337;23;20472;-85
2020/12/31 10:42:38;;;;;;;11.20;8.18;;;;;;;4.88;77.07;98483.63;6131552;23;20029;-85
2020/12/31 10:45:04;;;;;;;11.70;8.52;;;;;;;4.90;76.86;98479.19;6131595;23;20025;-84
2020/12/31 10:47:30;;;;;;;11.50;8.98;;;;;;;4.90;77.03;98482.63;6131988;23;20028;-85
2020/12/31 10:49:56;;;;;;;11.23;8.48;;;;;;;4.92;76.92;98475.56;6131912;23;20021;-84
2020/12/31 10:52:22;;;;;;;12.25;8.82;;;;;;;4.94;76.67;98484.13;6157352;23;20033;-84
2020/12/31 10:54:48;;;;;;;11.32;8.57;;;;;;;4.96;76.93;98478.84;6157088;23;20025;-85
2020/12/31 10:57:17;;;;;;;10.80;8.00;;;;;;;4.97;76.83;98479.69;6132455;23;20021;-85
2020/12/31 10:59:43;;;;;;;10.23;7.88;;;;;;;4.99;77.13;98489.13;6131542;23;20060;-84
2020/12/31 11:02:09;;;;;;;12.13;7.80;;;;;;;4.99;76.86;98483.91;6157552;23;20021;-84
2020/12/31 11:04:36;;;;;;;11.40;7.45;;;;;;;5.01;76.74;98484.63;6157024;23;20021;-84
2020/12/31 11:07:02;;;;;;;8.98;6.88;;;;;;;5.03;76.86;98490.63;6156973;23;20025;-84
2020/12/31 11:09:29;;;;;;;9.93;7.65;;;;;;;5.04;76.97;98484.47;6157274;23;20026;-84
2020/12/31 11:11:55;;;;;;;15.23;8.43;;;;;;;5.07;77.34;98481.72;6130710;23;20472;-86
2020/12/31 11:14:21;;;;;;;11.45;7.85;;;;;;;5.11;77.49;98476.31;6157561;23;20356;-84
2020/12/31 11:16:51;;;;;;;13.10;8.45;;;;;;;5.16;77.43;98466.47;6157119;23;20025;-85
2020/12/31 11:19:18;;;;;;;10.98;7.93;;;;;;;5.22;77.47;98466.13;6131338;23;20021;-84
2020/12/31 11:21:44;;;;;;;11.93;8.10;;;;;;;5.26;77.28;98457.22;6131536;23;20021;-85
2020/12/31 11:24:10;;;;;;;17.02;7.90;;;;;;;5.32;77.14;98469.06;6131274;23;20076;-84
2020/12/31 11:26:36;;;;;;;11.85;8.68;;;;;;;5.37;77.17;98463.56;6156879;23;20024;-84
2020/12/31 11:29:03;;;;;;;11.23;8.60;;;;;;;5.40;76.73;98461.66;6131278;23;20029;-84
2020/12/31 11:31:30;;;;;;;11.68;8.38;;;;;;;5.43;76.48;98455.41;6156752;23;20033;-84
2020/12/31 11:34:00;;;;;;;12.07;8.75;;;;;;;5.46;76.86;98453.47;6156862;23;20032;-84
2020/12/31 11:36:28;;;;;;;10.48;7.80;;;;;;;5.48;77.03;98449.00;6156547;23;20017;-84
2020/12/31 11:38:55;;;;;;;9.68;7.75;;;;;;;5.52;76.63;98448.81;6156763;23;20045;-84